sensor_id;sensor_type;location;lat;lon;timestamp;temperature;humidity
69261;DHT22;56378;52.404;20.816;2022-12-10T00:01:53;-0.30;99.90
69261;DHT22;56378;52.404;20.816;2022-12-10T00:04:20;-0.30;99.90
69261;DHT22;56378;52.404;20.816;2022-12-10T00:06:47;-0.30;99.90
69261;DHT22;56378;52.404;20.816;2022-12-10T00:09:16;-0.30;99.90
69261;DHT22;56378;52.404;20.816;2022-12-10T00:11:42;-0.30;99.90
69261;DHT22;56378;52.404;20.816;2022-12-10T00:14:08;-0.30;99.90
69261;DHT22;56378;52.404;20.816;2022-12-10T00:16:35;-0.30;99.90
69261;DHT22;56378;52.404;20.816;2022-12-10T00:19:01;-0.30;99.90
69261;DHT22;56378;52.404;20.816;2022-12-10T00:21:29;-0.30;99.90
69261;DHT22;56378;52.404;20.816;2022-12-10T00:23:56;-0.30;99.90
69261;DHT22;56378;52.404;20.816;2022-12-10T00:26:28;-0.30;99.90
69261;DHT22;56378;52.404;20.816;2022-12-10T00:28:55;-0.30;99.90
69261;DHT22;56378;52.404;20.816;2022-12-10T00:31:27;-0.30;99.90
69261;DHT22;56378;52.404;20.816;2022-12-10T00:33:54;-0.30;99.90
69261;DHT22;56378;52.404;20.816;2022-12-10T00:36:27;-0.30;99.90
69261;DHT22;56378;52.404;20.816;2022-12-10T00:38:53;-0.30;99.90
69261;DHT22;56378;52.404;20.816;2022-12-10T00:41:19;-0.30;99.90
69261;DHT22;56378;52.404;20.816;2022-12-10T00:43:45;-0.30;99.90
69261;DHT22;56378;52.404;20.816;2022-12-10T00:46:12;-0.30;99.90
69261;DHT22;56378;52.404;20.816;2022-12-10T00:48:39;-0.30;99.90
69261;DHT22;56378;52.404;20.816;2022-12-10T00:51:07;-0.30;99.90
69261;DHT22;56378;52.404;20.816;2022-12-10T00:53:35;-0.30;99.90
69261;DHT22;56378;52.404;20.816;2022-12-10T00:56:01;-0.30;99.90
69261;DHT22;56378;52.404;20.816;2022-12-10T00:58:28;-0.30;99.90
69261;DHT22;56378;52.404;20.816;2022-12-10T01:03:44;-0.40;99.90
69261;DHT22;56378;52.404;20.816;2022-12-10T01:06:12;-0.30;99.90
69261;DHT22;56378;52.404;20.816;2022-12-10T01:08:38;-0.30;99.90
69261;DHT22;56378;52.404;20.816;2022-12-10T01:11:05;-0.30;99.90
69261;DHT22;56378;52.404;20.816;2022-12-10T01:13:31;-0.30;99.90
69261;DHT22;56378;52.404;20.816;2022-12-10T01:16:00;-0.30;99.90
69261;DHT22;56378;52.404;20.816;2022-12-10T01:18:26;-0.30;99.90
69261;DHT22;56378;52.404;20.816;2022-12-10T01:20:52;-0.30;99.90
69261;DHT22;56378;52.404;20.816;2022-12-10T01:23:17;-0.20;99.90
69261;DHT22;56378;52.404;20.816;2022-12-10T01:25:43;-0.30;99.90
69261;DHT22;56378;52.404;20.816;2022-12-10T01:28:09;-0.30;99.90
69261;DHT22;56378;52.404;20.816;2022-12-10T01:30:34;-0.20;99.90
69261;DHT22;56378;52.404;20.816;2022-12-10T01:33:00;-0.20;99.90
69261;DHT22;56378;52.404;20.816;2022-12-10T01:35:26;-0.20;99.90
69261;DHT22;56378;52.404;20.816;2022-12-10T01:37:52;-0.20;99.90
69261;DHT22;56378;52.404;20.816;2022-12-10T01:40:17;-0.20;99.90
69261;DHT22;56378;52.404;20.816;2022-12-10T01:42:43;-0.20;99.90
69261;DHT22;56378;52.404;20.816;2022-12-10T01:45:11;-0.20;99.90
69261;DHT22;56378;52.404;20.816;2022-12-10T01:47:38;-0.20;99.90
69261;DHT22;56378;52.404;20.816;2022-12-10T01:50:05;-0.20;99.90
69261;DHT22;56378;52.404;20.816;2022-12-10T01:52:32;-0.20;99.90
69261;DHT22;56378;52.404;20.816;2022-12-10T01:54:58;-0.20;99.90
69261;DHT22;56378;52.404;20.816;2022-12-10T01:57:26;-0.20;99.90
69261;DHT22;56378;52.404;20.816;2022-12-10T01:59:58;-0.20;99.90
69261;DHT22;56378;52.404;20.816;2022-12-10T02:16:19;-0.20;99.90
69261;DHT22;56378;52.404;20.816;2022-12-10T02:18:55;-0.20;99.90
69261;DHT22;56378;52.404;20.816;2022-12-10T02:21:32;-0.20;99.90
69261;DHT22;56378;52.404;20.816;2022-12-10T02:24:05;-0.20;99.90
69261;DHT22;56378;52.404;20.816;2022-12-10T02:29:14;-0.20;99.90
69261;DHT22;56378;52.404;20.816;2022-12-10T02:31:47;-0.20;99.90
69261;DHT22;56378;52.404;20.816;2022-12-10T02:34:15;-0.20;99.90
69261;DHT22;56378;52.404;20.816;2022-12-10T02:36:44;-0.30;99.90
69261;DHT22;56378;52.404;20.816;2022-12-10T02:39:19;-0.20;99.90
69261;DHT22;56378;52.404;20.816;2022-12-10T02:41:50;-0.30;99.90
69261;DHT22;56378;52.404;20.816;2022-12-10T02:44:18;-0.20;99.90
69261;DHT22;56378;52.404;20.816;2022-12-10T02:46:46;-0.20;99.90
69261;DHT22;56378;52.404;20.816;2022-12-10T02:49:14;-0.20;99.90
69261;DHT22;56378;52.404;20.816;2022-12-10T02:51:41;-0.20;99.90
69261;DHT22;56378;52.404;20.816;2022-12-10T02:54:37;-0.20;99.90
69261;DHT22;56378;52.404;20.816;2022-12-10T03:05:06;-0.20;99.90
69261;DHT22;56378;52.404;20.816;2022-12-10T03:07:39;-0.20;99.90
69261;DHT22;56378;52.404;20.816;2022-12-10T03:12:56;-0.20;99.90
69261;DHT22;56378;52.404;20.816;2022-12-10T03:15:24;-0.20;99.90
69261;DHT22;56378;52.404;20.816;2022-12-10T03:17:50;-0.20;99.90
69261;DHT22;56378;52.404;20.816;2022-12-10T03:20:17;-0.20;99.90
69261;DHT22;56378;52.404;20.816;2022-12-10T03:22:47;-0.20;99.90
69261;DHT22;56378;52.404;20.816;2022-12-10T03:25:17;-0.20;99.90
69261;DHT22;56378;52.404;20.816;2022-12-10T03:27:45;-0.20;99.90
69261;DHT22;56378;52.404;20.816;2022-12-10T03:30:15;-0.20;99.90
69261;DHT22;56378;52.404;20.816;2022-12-10T03:32:42;-0.20;99.90
69261;DHT22;56378;52.404;20.816;2022-12-10T03:35:09;-0.20;99.90
69261;DHT22;56378;52.404;20.816;2022-12-10T03:37:35;-0.20;99.90
69261;DHT22;56378;52.404;20.816;2022-12-10T03:40:03;-0.20;99.90
69261;DHT22;56378;52.404;20.816;2022-12-10T03:42:29;-0.20;99.90
69261;DHT22;56378;52.404;20.816;2022-12-10T03:44:55;-0.20;99.90
69261;DHT22;56378;52.404;20.816;2022-12-10T03:47:21;-0.20;99.90
69261;DHT22;56378;52.404;20.816;2022-12-10T03:49:47;-0.20;99.90
69261;DHT22;56378;52.404;20.816;2022-12-10T03:52:13;-0.20;99.90
69261;DHT22;56378;52.404;20.816;2022-12-10T03:54:39;-0.20;99.90
69261;DHT22;56378;52.404;20.816;2022-12-10T03:57:05;-0.20;99.90
69261;DHT22;56378;52.404;20.816;2022-12-10T03:59:31;-0.20;99.90
69261;DHT22;56378;52.404;20.816;2022-12-10T04:02:00;-0.30;99.90
69261;DHT22;56378;52.404;20.816;2022-12-10T04:04:25;-0.30;99.90
69261;DHT22;56378;52.404;20.816;2022-12-10T04:06:51;-0.30;99.90
69261;DHT22;56378;52.404;20.816;2022-12-10T04:09:17;-0.20;99.90
69261;DHT22;56378;52.404;20.816;2022-12-10T04:11:43;-0.30;99.90
69261;DHT22;56378;52.404;20.816;2022-12-10T04:14:11;-0.30;99.90
69261;DHT22;56378;52.404;20.816;2022-12-10T04:16:55;-0.30;99.90
69261;DHT22;56378;52.404;20.816;2022-12-10T04:19:21;-0.30;99.90
69261;DHT22;56378;52.404;20.816;2022-12-10T04:21:47;-0.30;99.90
69261;DHT22;56378;52.404;20.816;2022-12-10T04:24:34;-0.30;99.90
69261;DHT22;56378;52.404;20.816;2022-12-10T04:27:27;-0.30;99.90
69261;DHT22;56378;52.404;20.816;2022-12-10T04:29:55;-0.30;99.90
69261;DHT22;56378;52.404;20.816;2022-12-10T04:32:22;-0.30;99.90
69261;DHT22;56378;52.404;20.816;2022-12-10T04:34:48;-0.30;99.90
69261;DHT22;56378;52.404;20.816;2022-12-10T04:37:17;-0.30;99.90
69261;DHT22;56378;52.404;20.816;2022-12-10T04:39:43;-0.30;99.90
69261;DHT22;56378;52.404;20.816;2022-12-10T04:42:09;-0.30;99.90
69261;DHT22;56378;52.404;20.816;2022-12-10T04:44:35;-0.30;99.90
69261;DHT22;56378;52.404;20.816;2022-12-10T04:47:03;-0.30;99.90
69261;DHT22;56378;52.404;20.816;2022-12-10T04:49:29;-0.20;99.90
69261;DHT22;56378;52.404;20.816;2022-12-10T04:51:55;-0.20;99.90
69261;DHT22;56378;52.404;20.816;2022-12-10T04:54:21;-0.20;99.90
69261;DHT22;56378;52.404;20.816;2022-12-10T04:56:47;-0.30;99.90
69261;DHT22;56378;52.404;20.816;2022-12-10T04:59:13;-0.30;99.90
69261;DHT22;56378;52.404;20.816;2022-12-10T05:01:38;-0.30;99.90
69261;DHT22;56378;52.404;20.816;2022-12-10T05:04:07;-0.30;99.90
69261;DHT22;56378;52.404;20.816;2022-12-10T05:06:34;-0.30;99.90
69261;DHT22;56378;52.404;20.816;2022-12-10T05:09:00;-0.30;99.90
69261;DHT22;56378;52.404;20.816;2022-12-10T05:11:28;-0.30;99.90
69261;DHT22;56378;52.404;20.816;2022-12-10T05:13:55;-0.30;99.90
69261;DHT22;56378;52.404;20.816;2022-12-10T05:16:22;-0.30;99.90
69261;DHT22;56378;52.404;20.816;2022-12-10T05:18:49;-0.30;99.90
69261;DHT22;56378;52.404;20.816;2022-12-10T05:21:17;-0.40;99.90
69261;DHT22;56378;52.404;20.816;2022-12-10T05:23:45;-0.40;99.90
69261;DHT22;56378;52.404;20.816;2022-12-10T05:26:14;-0.40;99.90
69261;DHT22;56378;52.404;20.816;2022-12-10T05:28:43;-0.40;99.90
69261;DHT22;56378;52.404;20.816;2022-12-10T05:31:21;-0.40;99.90
69261;DHT22;56378;52.404;20.816;2022-12-10T05:33:48;-0.40;99.90
69261;DHT22;56378;52.404;20.816;2022-12-10T05:36:16;-0.50;99.90
69261;DHT22;56378;52.404;20.816;2022-12-10T05:38:43;-0.50;99.90
69261;DHT22;56378;52.404;20.816;2022-12-10T05:41:12;-0.50;99.90
69261;DHT22;56378;52.404;20.816;2022-12-10T05:43:39;-0.50;99.90
69261;DHT22;56378;52.404;20.816;2022-12-10T05:46:10;-0.50;99.90
69261;DHT22;56378;52.404;20.816;2022-12-10T05:48:37;-0.50;99.90
69261;DHT22;56378;52.404;20.816;2022-12-10T05:51:13;-0.60;99.90
69261;DHT22;56378;52.404;20.816;2022-12-10T05:53:40;-0.50;99.90
69261;DHT22;56378;52.404;20.816;2022-12-10T05:56:14;-0.50;99.90
69261;DHT22;56378;52.404;20.816;2022-12-10T05:58:42;-0.50;99.90
69261;DHT22;56378;52.404;20.816;2022-12-10T06:01:11;-0.60;99.90
69261;DHT22;56378;52.404;20.816;2022-12-10T06:03:37;-0.50;99.90
69261;DHT22;56378;52.404;20.816;2022-12-10T06:06:04;-0.50;99.90
69261;DHT22;56378;52.404;20.816;2022-12-10T06:08:30;-0.50;99.90
69261;DHT22;56378;52.404;20.816;2022-12-10T06:10:56;-0.60;99.90
69261;DHT22;56378;52.404;20.816;2022-12-10T06:13:25;-0.60;99.90
69261;DHT22;56378;52.404;20.816;2022-12-10T06:15:51;-0.60;99.90
69261;DHT22;56378;52.404;20.816;2022-12-10T06:18:17;-0.60;99.90
69261;DHT22;56378;52.404;20.816;2022-12-10T06:20:42;-0.60;99.90
69261;DHT22;56378;52.404;20.816;2022-12-10T06:23:08;-0.60;99.90
69261;DHT22;56378;52.404;20.816;2022-12-10T06:25:37;-0.50;99.90
69261;DHT22;56378;52.404;20.816;2022-12-10T06:28:03;-0.50;99.90
69261;DHT22;56378;52.404;20.816;2022-12-10T06:30:29;-0.50;99.90
69261;DHT22;56378;52.404;20.816;2022-12-10T06:32:55;-0.60;99.90
69261;DHT22;56378;52.404;20.816;2022-12-10T06:35:21;-0.50;99.90
69261;DHT22;56378;52.404;20.816;2022-12-10T06:37:46;-0.50;99.90
69261;DHT22;56378;52.404;20.816;2022-12-10T06:40:13;-0.50;99.90
69261;DHT22;56378;52.404;20.816;2022-12-10T06:42:39;-0.60;99.90
69261;DHT22;56378;52.404;20.816;2022-12-10T06:45:05;-0.50;99.90
69261;DHT22;56378;52.404;20.816;2022-12-10T06:47:31;-0.60;99.90
69261;DHT22;56378;52.404;20.816;2022-12-10T06:49:56;-0.50;99.90
69261;DHT22;56378;52.404;20.816;2022-12-10T06:52:22;-0.50;99.90
69261;DHT22;56378;52.404;20.816;2022-12-10T06:54:48;-0.50;99.90
69261;DHT22;56378;52.404;20.816;2022-12-10T06:57:14;-0.50;99.90
69261;DHT22;56378;52.404;20.816;2022-12-10T06:59:40;-0.50;99.90
69261;DHT22;56378;52.404;20.816;2022-12-10T07:02:05;-0.50;99.90
69261;DHT22;56378;52.404;20.816;2022-12-10T07:04:31;-0.40;99.90
69261;DHT22;56378;52.404;20.816;2022-12-10T07:06:57;-0.40;99.90
69261;DHT22;56378;52.404;20.816;2022-12-10T07:09:22;-0.40;99.90
69261;DHT22;56378;52.404;20.816;2022-12-10T07:11:49;-0.40;99.90
69261;DHT22;56378;52.404;20.816;2022-12-10T07:14:16;-0.40;99.90
69261;DHT22;56378;52.404;20.816;2022-12-10T07:16:42;-0.40;99.90
69261;DHT22;56378;52.404;20.816;2022-12-10T07:19:10;-0.40;99.90
69261;DHT22;56378;52.404;20.816;2022-12-10T07:21:38;-0.30;99.90
69261;DHT22;56378;52.404;20.816;2022-12-10T07:24:11;-0.30;99.90
69261;DHT22;56378;52.404;20.816;2022-12-10T07:26:39;-0.30;99.90
69261;DHT22;56378;52.404;20.816;2022-12-10T07:29:06;-0.30;99.90
69261;DHT22;56378;52.404;20.816;2022-12-10T07:31:32;-0.30;99.90
69261;DHT22;56378;52.404;20.816;2022-12-10T07:33:59;-0.30;99.90
69261;DHT22;56378;52.404;20.816;2022-12-10T07:36:25;-0.20;99.90
69261;DHT22;56378;52.404;20.816;2022-12-10T07:38:52;-0.20;99.90
69261;DHT22;56378;52.404;20.816;2022-12-10T07:41:19;-0.20;99.90
69261;DHT22;56378;52.404;20.816;2022-12-10T07:43:46;-0.20;99.90
69261;DHT22;56378;52.404;20.816;2022-12-10T07:46:26;-0.20;99.90
69261;DHT22;56378;52.404;20.816;2022-12-10T07:48:52;-0.20;99.90
69261;DHT22;56378;52.404;20.816;2022-12-10T07:51:19;-0.20;99.90
69261;DHT22;56378;52.404;20.816;2022-12-10T07:53:46;-0.20;99.90
69261;DHT22;56378;52.404;20.816;2022-12-10T07:56:12;-0.20;99.90
69261;DHT22;56378;52.404;20.816;2022-12-10T07:58:41;-0.20;99.90
69261;DHT22;56378;52.404;20.816;2022-12-10T08:01:13;-0.20;99.90
69261;DHT22;56378;52.404;20.816;2022-12-10T08:03:39;-0.20;99.90
69261;DHT22;56378;52.404;20.816;2022-12-10T08:06:10;-0.20;99.90
69261;DHT22;56378;52.404;20.816;2022-12-10T08:08:37;-0.10;99.90
69261;DHT22;56378;52.404;20.816;2022-12-10T08:11:04;-0.20;99.90
69261;DHT22;56378;52.404;20.816;2022-12-10T08:13:30;-0.20;99.90
69261;DHT22;56378;52.404;20.816;2022-12-10T08:16:12;-0.20;99.90
69261;DHT22;56378;52.404;20.816;2022-12-10T08:18:39;-0.20;99.90
69261;DHT22;56378;52.404;20.816;2022-12-10T08:21:09;-0.20;99.90
69261;DHT22;56378;52.404;20.816;2022-12-10T08:23:35;-0.20;99.90
69261;DHT22;56378;52.404;20.816;2022-12-10T08:26:10;-0.20;99.90
69261;DHT22;56378;52.404;20.816;2022-12-10T08:28:36;-0.20;99.90
69261;DHT22;56378;52.404;20.816;2022-12-10T08:31:03;-0.10;99.90
69261;DHT22;56378;52.404;20.816;2022-12-10T08:33:29;-0.10;99.90
69261;DHT22;56378;52.404;20.816;2022-12-10T08:36:01;-0.10;99.90
69261;DHT22;56378;52.404;20.816;2022-12-10T08:38:28;-0.10;99.90
69261;DHT22;56378;52.404;20.816;2022-12-10T08:40:54;-0.10;99.90
69261;DHT22;56378;52.404;20.816;2022-12-10T08:43:20;0.00;99.90
69261;DHT22;56378;52.404;20.816;2022-12-10T08:45:46;0.00;99.90
69261;DHT22;56378;52.404;20.816;2022-12-10T08:48:11;0.00;99.90
69261;DHT22;56378;52.404;20.816;2022-12-10T08:50:38;0.00;99.90
69261;DHT22;56378;52.404;20.816;2022-12-10T08:53:04;0.00;99.90
69261;DHT22;56378;52.404;20.816;2022-12-10T08:55:29;0.00;99.90
69261;DHT22;56378;52.404;20.816;2022-12-10T08:57:58;0.10;99.90
69261;DHT22;56378;52.404;20.816;2022-12-10T09:00:25;0.10;99.90
69261;DHT22;56378;52.404;20.816;2022-12-10T09:02:51;0.10;99.90
69261;DHT22;56378;52.404;20.816;2022-12-10T09:05:17;0.10;99.90
69261;DHT22;56378;52.404;20.816;2022-12-10T09:07:44;0.20;99.90
69261;DHT22;56378;52.404;20.816;2022-12-10T09:10:11;0.20;99.90
69261;DHT22;56378;52.404;20.816;2022-12-10T09:12:37;0.20;99.90
69261;DHT22;56378;52.404;20.816;2022-12-10T09:15:05;0.20;99.90
69261;DHT22;56378;52.404;20.816;2022-12-10T09:17:31;0.20;99.90
69261;DHT22;56378;52.404;20.816;2022-12-10T09:19:56;0.20;99.90
69261;DHT22;56378;52.404;20.816;2022-12-10T09:22:22;0.20;99.90
69261;DHT22;56378;52.404;20.816;2022-12-10T09:24:48;0.20;99.90
69261;DHT22;56378;52.404;20.816;2022-12-10T09:27:14;0.20;99.90
69261;DHT22;56378;52.404;20.816;2022-12-10T09:29:40;0.20;99.90
69261;DHT22;56378;52.404;20.816;2022-12-10T09:32:05;0.20;99.90
69261;DHT22;56378;52.404;20.816;2022-12-10T09:34:31;0.20;99.90
69261;DHT22;56378;52.404;20.816;2022-12-10T09:36:57;0.20;99.90
69261;DHT22;56378;52.404;20.816;2022-12-10T09:39:23;0.20;99.90
69261;DHT22;56378;52.404;20.816;2022-12-10T09:45:25;0.20;99.90
69261;DHT22;56378;52.404;20.816;2022-12-10T09:53:27;0.30;99.90
69261;DHT22;56378;52.404;20.816;2022-12-10T09:55:53;0.20;99.90
69261;DHT22;56378;52.404;20.816;2022-12-10T09:58:21;0.20;99.90
69261;DHT22;56378;52.404;20.816;2022-12-10T10:01:10;0.30;99.90
69261;DHT22;56378;52.404;20.816;2022-12-10T10:03:40;0.30;99.90
69261;DHT22;56378;52.404;20.816;2022-12-10T10:06:12;0.30;99.90
69261;DHT22;56378;52.404;20.816;2022-12-10T10:08:42;0.40;99.90
69261;DHT22;56378;52.404;20.816;2022-12-10T10:11:22;0.40;99.90
69261;DHT22;56378;52.404;20.816;2022-12-10T10:16:33;0.50;99.90
69261;DHT22;56378;52.404;20.816;2022-12-10T10:19:03;0.60;99.90
69261;DHT22;56378;52.404;20.816;2022-12-10T10:21:39;0.60;99.90
69261;DHT22;56378;52.404;20.816;2022-12-10T10:24:07;0.60;99.90
69261;DHT22;56378;52.404;20.816;2022-12-10T10:26:35;0.60;99.90
69261;DHT22;56378;52.404;20.816;2022-12-10T10:29:05;0.60;99.90
69261;DHT22;56378;52.404;20.816;2022-12-10T10:31:34;0.60;99.90
69261;DHT22;56378;52.404;20.816;2022-12-10T10:34:05;0.60;99.80
69261;DHT22;56378;52.404;20.816;2022-12-10T10:36:33;0.60;99.90
69261;DHT22;56378;52.404;20.816;2022-12-10T10:41:44;0.60;99.00
69261;DHT22;56378;52.404;20.816;2022-12-10T10:44:17;0.60;99.30
69261;DHT22;56378;52.404;20.816;2022-12-10T10:46:49;0.60;98.90
69261;DHT22;56378;52.404;20.816;2022-12-10T10:49:25;0.60;99.00
69261;DHT22;56378;52.404;20.816;2022-12-10T10:51:59;0.60;98.40
69261;DHT22;56378;52.404;20.816;2022-12-10T10:57:24;0.60;98.70
69261;DHT22;56378;52.404;20.816;2022-12-10T10:59:49;0.60;98.60
69261;DHT22;56378;52.404;20.816;2022-12-10T11:02:29;0.50;98.70
69261;DHT22;56378;52.404;20.816;2022-12-10T11:04:56;0.50;99.00
69261;DHT22;56378;52.404;20.816;2022-12-10T11:07:39;0.60;99.30
69261;DHT22;56378;52.404;20.816;2022-12-10T11:10:18;0.60;99.40
69261;DHT22;56378;52.404;20.816;2022-12-10T11:12:53;0.70;99.00
69261;DHT22;56378;52.404;20.816;2022-12-10T11:15:32;0.70;98.60
69261;DHT22;56378;52.404;20.816;2022-12-10T11:17:59;0.70;98.80
69261;DHT22;56378;52.404;20.816;2022-12-10T11:20:29;0.60;98.50
69261;DHT22;56378;52.404;20.816;2022-12-10T11:23:00;0.60;97.50
69261;DHT22;56378;52.404;20.816;2022-12-10T11:33:27;0.60;98.50
69261;DHT22;56378;52.404;20.816;2022-12-10T11:36:04;0.60;98.60
69261;DHT22;56378;52.404;20.816;2022-12-10T11:38:45;0.50;98.60
69261;DHT22;56378;52.404;20.816;2022-12-10T11:41:24;0.50;98.50
69261;DHT22;56378;52.404;20.816;2022-12-10T11:49:39;0.70;98.90
69261;DHT22;56378;52.404;20.816;2022-12-10T11:55:23;0.60;98.00
69261;DHT22;56378;52.404;20.816;2022-12-10T11:58:24;0.60;97.90
69261;DHT22;56378;52.404;20.816;2022-12-10T12:06:08;0.50;97.30
69261;DHT22;56378;52.404;20.816;2022-12-10T12:11:23;0.50;97.40
69261;DHT22;56378;52.404;20.816;2022-12-10T12:14:06;0.50;97.50
69261;DHT22;56378;52.404;20.816;2022-12-10T12:16:40;0.50;97.30
69261;DHT22;56378;52.404;20.816;2022-12-10T12:19:17;0.50;96.40
69261;DHT22;56378;52.404;20.816;2022-12-10T12:21:47;0.50;96.30
69261;DHT22;56378;52.404;20.816;2022-12-10T12:24:22;0.40;96.40
69261;DHT22;56378;52.404;20.816;2022-12-10T12:26:57;0.50;96.40
69261;DHT22;56378;52.404;20.816;2022-12-10T12:29:30;0.40;96.90
69261;DHT22;56378;52.404;20.816;2022-12-10T12:34:51;0.50;97.10
69261;DHT22;56378;52.404;20.816;2022-12-10T12:37:22;0.40;97.00
69261;DHT22;56378;52.404;20.816;2022-12-10T12:39:52;0.40;97.30
69261;DHT22;56378;52.404;20.816;2022-12-10T12:42:45;0.40;97.20
69261;DHT22;56378;52.404;20.816;2022-12-10T12:45:51;0.50;97.10
69261;DHT22;56378;52.404;20.816;2022-12-10T12:50:47;0.50;97.00
69261;DHT22;56378;52.404;20.816;2022-12-10T12:53:20;0.50;96.90
69261;DHT22;56378;52.404;20.816;2022-12-10T12:59:31;0.40;97.40
69261;DHT22;56378;52.404;20.816;2022-12-10T13:02:13;0.40;96.80
69261;DHT22;56378;52.404;20.816;2022-12-10T13:04:40;0.40;96.90
69261;DHT22;56378;52.404;20.816;2022-12-10T13:07:33;0.40;97.10
69261;DHT22;56378;52.404;20.816;2022-12-10T13:12:44;0.40;97.20
69261;DHT22;56378;52.404;20.816;2022-12-10T13:15:21;0.40;97.00
69261;DHT22;56378;52.404;20.816;2022-12-10T13:28:41;0.20;97.20
69261;DHT22;56378;52.404;20.816;2022-12-10T13:36:13;0.20;96.80
69261;DHT22;56378;52.404;20.816;2022-12-10T13:39:10;0.20;96.50
69261;DHT22;56378;52.404;20.816;2022-12-10T13:45:00;0.10;96.70
69261;DHT22;56378;52.404;20.816;2022-12-10T13:47:43;0.20;96.90
69261;DHT22;56378;52.404;20.816;2022-12-10T13:56:04;0.20;97.10
69261;DHT22;56378;52.404;20.816;2022-12-10T14:01:58;0.20;96.50
69261;DHT22;56378;52.404;20.816;2022-12-10T14:05:03;0.20;96.20
69261;DHT22;56378;52.404;20.816;2022-12-10T14:07:34;0.20;95.90
69261;DHT22;56378;52.404;20.816;2022-12-10T14:10:00;0.10;96.10
69261;DHT22;56378;52.404;20.816;2022-12-10T14:12:38;0.10;96.10
69261;DHT22;56378;52.404;20.816;2022-12-10T14:15:08;0.10;95.90
69261;DHT22;56378;52.404;20.816;2022-12-10T14:17:40;0.10;95.70
69261;DHT22;56378;52.404;20.816;2022-12-10T14:20:11;0.00;95.70
69261;DHT22;56378;52.404;20.816;2022-12-10T14:22:48;0.00;95.80
69261;DHT22;56378;52.404;20.816;2022-12-10T14:25:18;0.00;95.30
69261;DHT22;56378;52.404;20.816;2022-12-10T14:27:47;-0.10;95.60
69261;DHT22;56378;52.404;20.816;2022-12-10T14:30:18;-0.10;95.80
69261;DHT22;56378;52.404;20.816;2022-12-10T14:32:44;-0.10;95.70
69261;DHT22;56378;52.404;20.816;2022-12-10T14:35:20;-0.10;95.80
69261;DHT22;56378;52.404;20.816;2022-12-10T14:37:48;-0.10;95.80
69261;DHT22;56378;52.404;20.816;2022-12-10T14:40:37;-0.10;95.50
69261;DHT22;56378;52.404;20.816;2022-12-10T14:43:07;-0.20;95.50
69261;DHT22;56378;52.404;20.816;2022-12-10T14:45:55;-0.20;95.60
69261;DHT22;56378;52.404;20.816;2022-12-10T14:48:22;-0.20;95.50
69261;DHT22;56378;52.404;20.816;2022-12-10T14:50:49;-0.20;95.40
69261;DHT22;56378;52.404;20.816;2022-12-10T14:53:23;-0.20;95.60
69261;DHT22;56378;52.404;20.816;2022-12-10T14:55:53;-0.30;96.10
69261;DHT22;56378;52.404;20.816;2022-12-10T15:01:34;-0.30;95.20
69261;DHT22;56378;52.404;20.816;2022-12-10T15:04:03;-0.20;94.70
69261;DHT22;56378;52.404;20.816;2022-12-10T15:06:34;-0.30;94.70
69261;DHT22;56378;52.404;20.816;2022-12-10T15:09:00;-0.30;95.20
69261;DHT22;56378;52.404;20.816;2022-12-10T15:11:27;-0.30;95.10
69261;DHT22;56378;52.404;20.816;2022-12-10T15:13:57;-0.30;95.00
69261;DHT22;56378;52.404;20.816;2022-12-10T15:18:55;-0.30;96.00
69261;DHT22;56378;52.404;20.816;2022-12-10T15:21:25;-0.40;95.70
69261;DHT22;56378;52.404;20.816;2022-12-10T15:24:07;-0.30;95.30
69261;DHT22;56378;52.404;20.816;2022-12-10T15:26:33;-0.40;95.00
69261;DHT22;56378;52.404;20.816;2022-12-10T15:32:15;-0.40;95.10
69261;DHT22;56378;52.404;20.816;2022-12-10T15:34:49;-0.40;94.90
69261;DHT22;56378;52.404;20.816;2022-12-10T15:37:26;-0.40;95.00
69261;DHT22;56378;52.404;20.816;2022-12-10T15:39:55;-0.40;94.80
69261;DHT22;56378;52.404;20.816;2022-12-10T15:42:43;-0.40;94.90
69261;DHT22;56378;52.404;20.816;2022-12-10T15:47:47;-0.50;94.80
69261;DHT22;56378;52.404;20.816;2022-12-10T15:50:13;-0.50;94.00
69261;DHT22;56378;52.404;20.816;2022-12-10T15:52:39;-0.60;94.10
69261;DHT22;56378;52.404;20.816;2022-12-10T15:55:06;-0.60;93.20
69261;DHT22;56378;52.404;20.816;2022-12-10T15:57:36;-0.60;93.00
69261;DHT22;56378;52.404;20.816;2022-12-10T16:00:15;-0.60;92.90
69261;DHT22;56378;52.404;20.816;2022-12-10T16:03:03;-0.70;93.20
69261;DHT22;56378;52.404;20.816;2022-12-10T16:05:32;-0.70;93.70
69261;DHT22;56378;52.404;20.816;2022-12-10T16:08:23;-0.70;94.00
69261;DHT22;56378;52.404;20.816;2022-12-10T16:10:52;-0.80;94.00
69261;DHT22;56378;52.404;20.816;2022-12-10T16:13:28;-0.80;94.20
69261;DHT22;56378;52.404;20.816;2022-12-10T16:16:07;-0.80;94.80
69261;DHT22;56378;52.404;20.816;2022-12-10T16:18:33;-0.80;94.70
69261;DHT22;56378;52.404;20.816;2022-12-10T16:21:02;-0.80;94.90
69261;DHT22;56378;52.404;20.816;2022-12-10T16:23:29;-0.80;95.00
69261;DHT22;56378;52.404;20.816;2022-12-10T16:25:54;-0.70;94.70
69261;DHT22;56378;52.404;20.816;2022-12-10T16:28:22;-0.70;94.50
69261;DHT22;56378;52.404;20.816;2022-12-10T16:30:50;-0.70;94.10
69261;DHT22;56378;52.404;20.816;2022-12-10T16:33:17;-0.70;94.10
69261;DHT22;56378;52.404;20.816;2022-12-10T16:35:47;-0.70;94.10
69261;DHT22;56378;52.404;20.816;2022-12-10T16:38:13;-0.80;94.30
69261;DHT22;56378;52.404;20.816;2022-12-10T16:40:40;-0.80;94.40
69261;DHT22;56378;52.404;20.816;2022-12-10T16:43:15;-0.80;94.10
69261;DHT22;56378;52.404;20.816;2022-12-10T16:45:41;-0.80;94.10
69261;DHT22;56378;52.404;20.816;2022-12-10T16:48:08;-0.70;94.40
69261;DHT22;56378;52.404;20.816;2022-12-10T16:50:34;-0.70;94.30
69261;DHT22;56378;52.404;20.816;2022-12-10T16:53:09;-0.70;94.30
69261;DHT22;56378;52.404;20.816;2022-12-10T16:55:36;-0.70;94.20
69261;DHT22;56378;52.404;20.816;2022-12-10T16:58:02;-0.70;94.10
69261;DHT22;56378;52.404;20.816;2022-12-10T17:00:28;-0.70;94.20
69261;DHT22;56378;52.404;20.816;2022-12-10T17:02:54;-0.70;94.20
69261;DHT22;56378;52.404;20.816;2022-12-10T17:05:33;-0.70;94.50
69261;DHT22;56378;52.404;20.816;2022-12-10T17:08:01;-0.70;94.00
69261;DHT22;56378;52.404;20.816;2022-12-10T17:10:26;-0.70;93.70
69261;DHT22;56378;52.404;20.816;2022-12-10T17:13:12;-0.70;93.80
69261;DHT22;56378;52.404;20.816;2022-12-10T17:15:40;-0.70;93.70
69261;DHT22;56378;52.404;20.816;2022-12-10T17:18:12;-0.70;93.80
69261;DHT22;56378;52.404;20.816;2022-12-10T17:20:39;-0.70;93.90
69261;DHT22;56378;52.404;20.816;2022-12-10T17:23:05;-0.70;94.00
69261;DHT22;56378;52.404;20.816;2022-12-10T17:25:31;-0.70;94.20
69261;DHT22;56378;52.404;20.816;2022-12-10T17:27:57;-0.80;94.10
69261;DHT22;56378;52.404;20.816;2022-12-10T17:30:23;-0.80;94.20
69261;DHT22;56378;52.404;20.816;2022-12-10T17:32:49;-0.80;93.90
69261;DHT22;56378;52.404;20.816;2022-12-10T17:35:15;-0.80;94.40
69261;DHT22;56378;52.404;20.816;2022-12-10T17:37:41;-0.80;94.40
69261;DHT22;56378;52.404;20.816;2022-12-10T17:40:16;-0.80;94.70